createdAt,value
2019-03-03T00:00:21.335Z,4.10
2019-03-03T00:01:21.519Z,5.50
2019-03-03T00:02:21.703Z,4.40
2019-03-03T00:03:21.861Z,5.70
2019-03-03T00:04:22.031Z,5.90
2019-03-03T00:05:22.216Z,4.40
2019-03-03T00:06:22.390Z,5.30
2019-03-03T00:07:22.548Z,5.50
2019-03-03T00:08:24.548Z,5.60
2019-03-03T00:09:22.899Z,5.10
2019-03-03T00:10:23.085Z,4.60
2019-03-03T00:11:23.262Z,5.40
2019-03-03T00:12:23.429Z,5.80
2019-03-03T00:13:23.610Z,5.70
2019-03-03T00:14:23.779Z,5.00
2019-03-03T00:15:23.960Z,4.90
2019-03-03T00:16:24.126Z,5.00
2019-03-03T00:17:24.306Z,6.10
2019-03-03T00:18:24.468Z,5.80
2019-03-03T00:19:24.633Z,5.70
2019-03-03T00:20:25.068Z,4.40
2019-03-03T00:21:24.925Z,5.20
2019-03-03T00:22:25.099Z,4.20
2019-03-03T00:23:25.270Z,6.30
2019-03-03T00:24:25.439Z,6.10
2019-03-03T00:25:25.625Z,4.20
2019-03-03T00:26:25.803Z,4.10
2019-03-03T00:27:25.967Z,4.90
2019-03-03T00:28:26.145Z,5.00
2019-03-03T00:29:26.311Z,5.30
2019-03-03T00:30:26.786Z,3.90
2019-03-03T00:31:26.816Z,5.60
2019-03-03T00:32:26.894Z,5.10
2019-03-03T00:33:27.735Z,4.70
2019-03-03T00:34:27.194Z,5.10
2019-03-03T00:35:27.959Z,4.70
2019-03-03T00:36:27.597Z,5.00
2019-03-03T00:37:27.793Z,4.50
2019-03-03T00:38:28.045Z,4.20
2019-03-03T00:39:28.174Z,3.80
2019-03-03T00:40:28.415Z,5.70
2019-03-03T00:41:28.695Z,4.70
2019-03-03T00:42:28.709Z,4.80
2019-03-03T00:43:29.047Z,5.10
2019-03-03T00:44:29.190Z,3.90
2019-03-03T00:45:30.035Z,4.30
2019-03-03T00:46:29.432Z,4.40
2019-03-03T00:47:29.688Z,4.80
2019-03-03T00:48:29.943Z,3.90
2019-03-03T00:49:30.354Z,4.80
2019-03-03T00:50:30.199Z,4.60
2019-03-03T00:51:30.422Z,4.90
2019-03-03T00:52:30.614Z,4.70
2019-03-03T00:53:32.757Z,4.90
2019-03-03T00:54:30.851Z,4.20
2019-03-03T00:55:31.071Z,4.70
2019-03-03T00:56:31.598Z,5.20
2019-03-03T00:57:31.793Z,4.70
2019-03-03T00:58:31.943Z,4.40
2019-03-03T00:59:32.286Z,4.10
2019-03-03T01:00:32.272Z,5.00
2019-03-03T01:01:32.766Z,4.70
2019-03-03T01:02:34.504Z,4.80
2019-03-03T01:03:32.736Z,4.10
2019-03-03T01:04:33.361Z,3.90
2019-03-03T01:05:33.097Z,5.50
2019-03-03T01:06:33.267Z,5.50
2019-03-03T01:07:33.346Z,6.50
2019-03-03T01:08:33.458Z,5.80
2019-03-03T01:09:34.215Z,5.80
2019-03-03T01:10:34.012Z,5.90
2019-03-03T01:11:34.785Z,5.20
2019-03-03T01:12:34.757Z,5.50
2019-03-03T01:13:34.919Z,3.90
2019-03-03T01:14:34.693Z,4.60
2019-03-03T01:15:35.736Z,5.20
2019-03-03T01:16:35.569Z,5.90
2019-03-03T01:17:37.580Z,6.20
2019-03-03T01:18:35.512Z,5.50
2019-03-03T01:19:36.676Z,7.20
2019-03-03T01:20:35.758Z,4.90
2019-03-03T01:21:36.715Z,5.60
2019-03-03T01:22:35.784Z,5.40
2019-03-03T01:23:36.362Z,4.60
2019-03-03T01:24:36.157Z,6.20
2019-03-03T01:25:37.288Z,6.10
2019-03-03T01:26:36.850Z,6.40
2019-03-03T01:27:36.589Z,4.70
2019-03-03T01:28:36.679Z,5.90
2019-03-03T01:29:36.694Z,6.90
2019-03-03T01:30:36.809Z,4.40
2019-03-03T01:31:37.045Z,5.70
2019-03-03T01:32:36.996Z,5.20
2019-03-03T01:33:37.179Z,5.60
2019-03-03T01:34:37.348Z,5.90
2019-03-03T01:35:37.527Z,5.40
2019-03-03T01:36:37.685Z,6.00
2019-03-03T01:37:37.854Z,5.30
2019-03-03T01:38:38.037Z,4.20
2019-03-03T01:39:38.220Z,4.60
2019-03-03T01:40:38.389Z,6.80
2019-03-03T01:41:38.555Z,4.80
2019-03-03T01:42:38.726Z,5.20
2019-03-03T01:43:38.894Z,4.80
2019-03-03T01:44:39.067Z,5.10
2019-03-03T01:45:39.228Z,6.10
2019-03-03T01:46:39.426Z,5.20
2019-03-03T01:47:39.596Z,7.20
2019-03-03T01:48:39.778Z,5.40
2019-03-03T01:49:39.954Z,5.80
2019-03-03T01:50:40.146Z,4.50
2019-03-03T01:51:40.350Z,5.80
2019-03-03T01:52:40.544Z,5.60
2019-03-03T01:53:40.714Z,5.70
2019-03-03T01:54:40.896Z,4.90
2019-03-03T01:55:41.060Z,5.60
2019-03-03T01:56:41.211Z,5.70
2019-03-03T01:57:41.400Z,4.80
2019-03-03T01:58:41.578Z,5.40
2019-03-03T01:59:41.777Z,4.90
2019-03-03T02:00:41.938Z,4.30
2019-03-03T02:01:42.102Z,5.40
2019-03-03T02:02:42.282Z,5.30
2019-03-03T02:03:42.434Z,4.60
2019-03-03T02:04:42.605Z,5.10
2019-03-03T02:05:42.779Z,5.50
2019-03-03T02:06:42.954Z,5.20
2019-03-03T02:07:43.124Z,4.90
2019-03-03T02:08:43.292Z,4.60
2019-03-03T02:09:43.445Z,5.80
2019-03-03T02:10:43.617Z,6.90
2019-03-03T02:11:43.785Z,5.20
2019-03-03T02:12:43.958Z,5.80
2019-03-03T02:13:44.140Z,5.70
2019-03-03T02:14:44.310Z,5.60
2019-03-03T02:15:44.468Z,5.20
2019-03-03T02:16:44.640Z,5.30
2019-03-03T02:17:44.812Z,5.30
2019-03-03T02:18:45.652Z,4.10
2019-03-03T02:19:48.690Z,4.20
2019-03-03T02:20:48.185Z,4.30
2019-03-03T02:21:48.659Z,5.00
2019-03-03T02:22:46.717Z,6.70
2019-03-03T02:23:45.801Z,5.90
2019-03-03T02:24:48.570Z,5.00
2019-03-03T02:25:46.126Z,7.10
2019-03-03T02:26:46.299Z,5.90
2019-03-03T02:27:46.459Z,4.80
2019-03-03T02:28:46.635Z,5.70
2019-03-03T02:29:46.802Z,5.70
2019-03-03T02:30:46.975Z,5.30
2019-03-03T02:31:47.139Z,5.50
2019-03-03T02:32:47.323Z,7.10
2019-03-03T02:33:47.485Z,5.30
2019-03-03T02:34:47.661Z,6.20
2019-03-03T02:35:47.834Z,6.10
2019-03-03T02:36:47.998Z,6.30
2019-03-03T02:37:48.207Z,6.50
2019-03-03T02:38:48.351Z,6.70
2019-03-03T02:39:48.515Z,5.70
2019-03-03T02:40:48.692Z,5.50
2019-03-03T02:41:48.873Z,5.20
2019-03-03T02:42:49.054Z,6.70
2019-03-03T02:43:49.208Z,7.90
2019-03-03T02:44:49.392Z,7.00
2019-03-03T02:45:49.569Z,5.10
2019-03-03T02:46:49.752Z,5.70
2019-03-03T02:47:49.946Z,6.30
2019-03-03T02:48:50.101Z,7.00
2019-03-03T02:49:50.262Z,6.90
2019-03-03T02:50:50.438Z,6.40
2019-03-03T02:51:50.597Z,9.60
2019-03-03T02:52:50.766Z,5.80
2019-03-03T02:53:50.935Z,6.50
2019-03-03T02:54:51.182Z,7.40
2019-03-03T02:55:51.272Z,7.70
2019-03-03T02:56:51.440Z,8.20
2019-03-03T02:57:51.619Z,8.00
2019-03-03T02:58:51.784Z,7.50
2019-03-03T02:59:51.949Z,8.70
2019-03-03T03:00:52.127Z,8.40
2019-03-03T03:01:52.290Z,7.60
2019-03-03T03:02:52.454Z,8.30
2019-03-03T03:03:52.632Z,7.70
2019-03-03T03:04:52.795Z,8.10
2019-03-03T03:05:52.964Z,7.80
2019-03-03T03:06:53.125Z,7.50
2019-03-03T03:07:53.310Z,6.30
2019-03-03T03:08:53.486Z,6.90
2019-03-03T03:09:53.657Z,8.60
2019-03-03T03:10:53.837Z,8.40
2019-03-03T03:11:54.012Z,6.20
2019-03-03T03:12:54.176Z,8.60
2019-03-03T03:13:54.346Z,7.30
2019-03-03T03:14:54.523Z,9.00
2019-03-03T03:15:54.704Z,6.80
2019-03-03T03:16:54.858Z,7.10
2019-03-03T03:17:55.029Z,8.60
2019-03-03T03:18:55.200Z,7.70
2019-03-03T03:19:55.375Z,7.10
2019-03-03T03:20:55.545Z,7.40
2019-03-03T03:21:55.722Z,7.60
2019-03-03T03:22:55.891Z,7.20
2019-03-03T03:23:56.059Z,7.40
2019-03-03T03:24:56.229Z,7.80
2019-03-03T03:25:56.401Z,8.40
2019-03-03T03:26:56.574Z,8.50
2019-03-03T03:27:56.738Z,9.10
2019-03-03T03:28:56.906Z,8.90
2019-03-03T03:29:57.078Z,8.60
2019-03-03T03:30:57.248Z,8.80
2019-03-03T03:31:57.417Z,7.20
2019-03-03T03:32:57.621Z,7.80
2019-03-03T03:33:57.810Z,8.20
2019-03-03T03:34:57.967Z,8.30
2019-03-03T03:35:58.144Z,10.80
2019-03-03T03:36:58.302Z,11.30
2019-03-03T03:37:58.476Z,9.80
2019-03-03T03:38:58.658Z,7.20
2019-03-03T03:39:58.825Z,8.50
2019-03-03T03:40:58.998Z,7.60
2019-03-03T03:41:59.172Z,7.80
2019-03-03T03:42:59.336Z,9.40
2019-03-03T03:43:59.509Z,10.10
2019-03-03T03:44:59.682Z,8.40
2019-03-03T03:45:59.854Z,7.70
2019-03-03T03:47:00.019Z,7.60
2019-03-03T03:48:00.181Z,7.70
2019-03-03T03:49:00.363Z,8.00
2019-03-03T03:50:00.530Z,7.90
2019-03-03T03:51:00.692Z,7.70
2019-03-03T03:52:00.867Z,6.30
2019-03-03T03:53:01.037Z,9.30
2019-03-03T03:54:01.212Z,6.80
2019-03-03T03:55:01.455Z,8.90
2019-03-03T03:56:01.554Z,8.90
2019-03-03T03:57:01.724Z,7.40
2019-03-03T03:58:01.897Z,7.70
2019-03-03T03:59:02.060Z,8.10
2019-03-03T04:00:02.227Z,7.40
2019-03-03T04:01:02.411Z,7.10
2019-03-03T04:02:02.582Z,8.10
2019-03-03T04:03:02.760Z,8.50
2019-03-03T04:04:02.925Z,8.90
2019-03-03T04:05:03.087Z,7.20
2019-03-03T04:06:03.275Z,9.70
2019-03-03T04:07:03.443Z,7.80
2019-03-03T04:08:03.608Z,6.40
2019-03-03T04:09:03.776Z,7.50
2019-03-03T04:10:03.934Z,6.20
2019-03-03T04:11:04.101Z,6.80
2019-03-03T04:12:04.300Z,8.00
2019-03-03T04:13:04.468Z,7.60
2019-03-03T04:14:04.634Z,7.80
2019-03-03T04:15:04.819Z,6.80
2019-03-03T04:16:04.971Z,7.00
2019-03-03T04:17:05.144Z,10.70
2019-03-03T04:18:05.317Z,8.00
2019-03-03T04:19:05.468Z,6.70
2019-03-03T04:20:05.634Z,5.70
2019-03-03T04:21:05.818Z,8.00
2019-03-03T04:22:05.992Z,8.90
2019-03-03T04:23:06.165Z,8.00
2019-03-03T04:24:06.328Z,6.40
2019-03-03T04:25:06.501Z,6.00
2019-03-03T04:26:06.672Z,8.20
2019-03-03T04:27:06.829Z,6.90
2019-03-03T04:28:06.993Z,6.90
2019-03-03T04:29:07.172Z,8.70
2019-03-03T04:30:07.338Z,8.40
2019-03-03T04:31:07.510Z,8.70
2019-03-03T04:32:07.677Z,7.80
2019-03-03T04:33:07.843Z,6.10
2019-03-03T04:34:08.010Z,7.90
2019-03-03T04:35:08.182Z,7.30
2019-03-03T04:36:08.374Z,7.40
2019-03-03T04:37:08.532Z,6.80
2019-03-03T04:38:08.702Z,6.60
2019-03-03T04:39:08.881Z,6.60
2019-03-03T04:40:09.049Z,6.50
2019-03-03T04:41:09.221Z,7.60
2019-03-03T04:42:09.392Z,7.30
2019-03-03T04:43:09.563Z,9.50
2019-03-03T04:44:09.743Z,7.60
2019-03-03T04:45:09.912Z,7.20
2019-03-03T04:46:10.076Z,8.90
2019-03-03T04:47:10.249Z,6.70
2019-03-03T04:48:10.422Z,7.40
2019-03-03T04:49:10.600Z,8.00
2019-03-03T04:50:10.767Z,6.80
2019-03-03T04:51:10.951Z,7.50
2019-03-03T04:52:11.123Z,7.30
2019-03-03T04:53:11.290Z,6.80
2019-03-03T04:54:11.459Z,6.40
2019-03-03T04:55:11.630Z,6.30
2019-03-03T04:56:11.792Z,6.70
2019-03-03T04:57:11.968Z,7.30
2019-03-03T04:58:12.135Z,5.90
2019-03-03T04:59:12.307Z,6.30
2019-03-03T05:00:12.479Z,7.50
2019-03-03T05:01:12.655Z,6.40
2019-03-03T05:02:12.827Z,7.00
2019-03-03T05:03:13.003Z,6.80
2019-03-03T05:04:13.173Z,8.50
2019-03-03T05:05:13.343Z,8.50
2019-03-03T05:06:13.506Z,6.80
2019-03-03T05:07:13.683Z,6.70
2019-03-03T05:08:13.862Z,7.60
2019-03-03T05:09:14.027Z,6.60
2019-03-03T05:10:14.204Z,8.10
2019-03-03T05:11:14.362Z,7.40
2019-03-03T05:12:14.540Z,6.20
2019-03-03T05:13:14.712Z,6.20
2019-03-03T05:14:14.895Z,7.40
2019-03-03T05:15:15.071Z,6.70
2019-03-03T05:16:15.254Z,7.10
2019-03-03T05:17:15.420Z,5.40
2019-03-03T05:18:15.599Z,7.40
2019-03-03T05:19:15.775Z,6.40
2019-03-03T05:20:15.941Z,6.60
2019-03-03T05:21:16.230Z,8.20
2019-03-03T05:22:16.300Z,9.10
2019-03-03T05:23:16.470Z,7.20
2019-03-03T05:24:16.640Z,9.20
2019-03-03T05:25:16.804Z,7.70
2019-03-03T05:26:16.967Z,6.00
2019-03-03T05:27:17.128Z,6.00
2019-03-03T05:28:17.294Z,6.00
2019-03-03T05:29:17.470Z,8.70
2019-03-03T05:30:17.628Z,6.90
2019-03-03T05:31:17.806Z,7.90
2019-03-03T05:32:17.978Z,6.40
2019-03-03T05:33:18.148Z,8.50
2019-03-03T05:34:18.317Z,7.80
2019-03-03T05:35:18.485Z,6.80
2019-03-03T05:36:18.654Z,5.90
2019-03-03T05:37:18.837Z,6.20
2019-03-03T05:38:19.003Z,7.70
2019-03-03T05:39:19.168Z,7.90
2019-03-03T05:40:19.330Z,7.20
2019-03-03T05:41:19.504Z,6.80
2019-03-03T05:42:19.679Z,7.10
2019-03-03T05:43:19.857Z,8.00
2019-03-03T05:44:20.023Z,9.10
2019-03-03T05:45:20.194Z,7.00
2019-03-03T05:46:20.369Z,8.30
2019-03-03T05:47:20.541Z,5.80
2019-03-03T05:48:20.707Z,6.70
2019-03-03T05:49:20.875Z,6.40
2019-03-03T05:50:21.053Z,7.10
2019-03-03T05:51:21.230Z,5.20
2019-03-03T05:52:21.407Z,7.70
2019-03-03T05:53:21.586Z,8.60
2019-03-03T05:54:21.762Z,7.10
2019-03-03T05:55:21.929Z,6.60
2019-03-03T05:56:22.107Z,7.10
2019-03-03T05:57:22.265Z,7.50
2019-03-03T05:58:22.429Z,7.00
2019-03-03T05:59:22.598Z,9.40
2019-03-03T06:00:22.767Z,6.70
2019-03-03T06:01:22.930Z,9.30
2019-03-03T06:02:23.121Z,7.50
2019-03-03T06:03:23.296Z,8.10
2019-03-03T06:04:23.469Z,7.30
2019-03-03T06:05:23.638Z,6.60
2019-03-03T06:06:23.797Z,7.40
2019-03-03T06:07:23.964Z,7.60
2019-03-03T06:08:24.134Z,7.30
2019-03-03T06:09:24.632Z,7.80
2019-03-03T06:10:24.519Z,6.10
2019-03-03T06:11:24.707Z,6.60
2019-03-03T06:12:26.077Z,6.50
2019-03-03T06:13:26.028Z,6.60
2019-03-03T06:14:28.802Z,5.20
2019-03-03T06:15:26.041Z,5.90
2019-03-03T06:16:26.988Z,5.30
2019-03-03T06:17:27.462Z,7.00
2019-03-03T06:18:25.824Z,8.10
2019-03-03T06:19:25.998Z,8.00
2019-03-03T06:20:27.834Z,7.30
2019-03-03T06:21:26.336Z,7.10
2019-03-03T06:22:26.506Z,7.10
2019-03-03T06:23:26.683Z,6.50
2019-03-03T06:24:26.853Z,7.70
2019-03-03T06:25:27.034Z,8.90
2019-03-03T06:26:27.220Z,5.00
2019-03-03T06:27:27.384Z,6.90
2019-03-03T06:28:27.560Z,4.80
2019-03-03T06:29:27.730Z,5.60
2019-03-03T06:30:27.911Z,7.30
2019-03-03T06:31:28.075Z,6.90
2019-03-03T06:32:28.244Z,5.00
2019-03-03T06:33:28.412Z,7.40
2019-03-03T06:34:28.589Z,6.40
2019-03-03T06:35:28.762Z,7.00
2019-03-03T06:36:28.945Z,8.00
2019-03-03T06:37:29.119Z,7.20
2019-03-03T06:38:29.302Z,5.10
2019-03-03T06:39:29.486Z,6.80
2019-03-03T06:40:29.649Z,8.30
2019-03-03T06:41:29.817Z,6.80
2019-03-03T06:42:29.992Z,6.90
2019-03-03T06:43:30.164Z,6.70
2019-03-03T06:44:30.346Z,7.00
2019-03-03T06:45:30.527Z,6.30
2019-03-03T06:46:30.691Z,5.70
2019-03-03T06:47:30.881Z,7.10
2019-03-03T06:48:31.054Z,7.20
2019-03-03T06:49:31.241Z,5.70
2019-03-03T06:50:31.417Z,8.10
2019-03-03T06:51:31.602Z,5.20
2019-03-03T06:52:33.971Z,8.10
2019-03-03T06:53:32.177Z,7.10
2019-03-03T06:54:32.078Z,8.70
2019-03-03T06:55:32.734Z,5.10
2019-03-03T06:56:34.393Z,9.00
2019-03-03T06:57:33.823Z,9.00
2019-03-03T06:58:33.589Z,8.30
2019-03-03T06:59:32.735Z,6.30
2019-03-03T07:00:33.964Z,5.80
2019-03-03T07:01:34.371Z,6.50
2019-03-03T07:02:34.283Z,6.10
2019-03-03T07:03:33.405Z,7.20
2019-03-03T07:04:34.394Z,6.10
2019-03-03T07:05:34.926Z,6.50
2019-03-03T07:06:35.749Z,5.70
2019-03-03T07:07:37.063Z,7.60
2019-03-03T07:08:34.282Z,7.50
2019-03-03T07:09:34.444Z,4.60
2019-03-03T07:10:37.216Z,6.20
2019-03-03T07:11:35.825Z,5.30
2019-03-03T07:12:38.474Z,5.40
2019-03-03T07:13:35.057Z,7.00
2019-03-03T07:14:36.258Z,6.20
2019-03-03T07:15:37.126Z,5.60
2019-03-03T07:16:35.542Z,5.30
2019-03-03T07:17:35.708Z,6.90
2019-03-03T07:18:37.391Z,6.00
2019-03-03T07:19:38.929Z,4.50
2019-03-03T07:20:41.178Z,6.20
2019-03-03T07:21:36.492Z,5.80
2019-03-03T07:22:36.674Z,7.50
2019-03-03T07:23:36.842Z,7.10
2019-03-03T07:24:37.019Z,5.20
2019-03-03T07:25:37.188Z,6.20
2019-03-03T07:26:37.394Z,7.30
2019-03-03T07:27:37.535Z,7.90
2019-03-03T07:28:37.706Z,6.80
2019-03-03T07:29:37.870Z,8.40
2019-03-03T07:30:38.042Z,8.40
2019-03-03T07:31:38.211Z,7.60
2019-03-03T07:32:38.378Z,8.30
2019-03-03T07:33:38.549Z,5.60
2019-03-03T07:34:38.745Z,9.80
2019-03-03T07:35:38.914Z,7.20
2019-03-03T07:36:39.093Z,5.90
2019-03-03T07:37:40.325Z,7.00
2019-03-03T07:38:39.429Z,7.70
2019-03-03T07:39:40.091Z,6.30
2019-03-03T07:40:39.738Z,7.10
2019-03-03T07:41:39.866Z,6.50
2019-03-03T07:42:40.062Z,6.10
2019-03-03T07:43:40.222Z,7.60
2019-03-03T07:44:40.402Z,6.80
2019-03-03T07:45:40.578Z,8.00
2019-03-03T07:46:40.753Z,7.00
2019-03-03T07:47:40.937Z,6.90
2019-03-03T07:48:41.118Z,6.80
2019-03-03T07:49:41.310Z,6.10
2019-03-03T07:50:41.495Z,7.60
2019-03-03T07:51:41.668Z,7.10
2019-03-03T07:52:41.855Z,7.10
2019-03-03T07:53:42.037Z,6.90
2019-03-03T07:54:42.206Z,7.40
2019-03-03T07:55:42.393Z,5.90
2019-03-03T07:56:42.573Z,7.20
2019-03-03T07:57:44.168Z,5.70
2019-03-03T07:58:42.970Z,8.80
2019-03-03T07:59:43.141Z,7.90
2019-03-03T08:00:43.320Z,6.30
2019-03-03T08:01:43.490Z,6.30
2019-03-03T08:02:43.655Z,7.30
2019-03-03T08:03:43.861Z,7.70
2019-03-03T08:04:45.414Z,7.00
2019-03-03T08:05:44.128Z,5.30
2019-03-03T08:06:44.319Z,8.80
2019-03-03T08:07:44.485Z,6.90
2019-03-03T08:08:44.978Z,6.70
2019-03-03T08:09:44.890Z,9.10
2019-03-03T08:10:45.091Z,7.40
2019-03-03T08:11:45.271Z,6.60
2019-03-03T08:12:45.451Z,7.10
2019-03-03T08:13:45.642Z,7.20
2019-03-03T08:14:45.825Z,7.20
2019-03-03T08:15:46.026Z,6.10
2019-03-03T08:16:46.319Z,7.20
2019-03-03T08:17:46.408Z,6.90
2019-03-03T08:18:46.575Z,8.20
2019-03-03T08:19:47.060Z,7.90
2019-03-03T08:20:47.234Z,9.00
2019-03-03T08:21:47.041Z,7.10
2019-03-03T08:22:47.217Z,8.10
2019-03-03T08:23:47.634Z,6.30
2019-03-03T08:24:47.924Z,8.30
2019-03-03T08:25:47.776Z,7.00
2019-03-03T08:26:48.006Z,6.90
2019-03-03T08:27:48.086Z,6.80
2019-03-03T08:28:48.280Z,9.70
2019-03-03T08:29:48.465Z,7.40
2019-03-03T08:30:48.953Z,6.70
2019-03-03T08:31:49.043Z,9.40
2019-03-03T08:32:48.893Z,7.70
2019-03-03T08:33:49.281Z,8.30
2019-03-03T08:34:49.236Z,7.00
2019-03-03T08:35:49.417Z,9.20
2019-03-03T08:36:50.621Z,8.50
2019-03-03T08:37:49.774Z,7.30
2019-03-03T08:38:49.976Z,6.40
2019-03-03T08:39:50.196Z,6.90
2019-03-03T08:40:50.804Z,10.30
2019-03-03T08:41:50.603Z,7.90
2019-03-03T08:42:51.114Z,7.60
2019-03-03T08:43:50.957Z,7.50
2019-03-03T08:44:51.241Z,7.20
2019-03-03T08:45:51.246Z,8.70
2019-03-03T08:46:51.460Z,7.20
2019-03-03T08:47:53.356Z,7.40
2019-03-03T08:48:52.942Z,7.00
2019-03-03T08:49:51.991Z,7.90
2019-03-03T08:50:52.901Z,8.50
2019-03-03T08:51:52.525Z,8.30
2019-03-03T08:52:52.444Z,8.40
2019-03-03T08:53:52.635Z,7.10
2019-03-03T08:54:53.839Z,9.50
2019-03-03T08:55:52.905Z,8.50
2019-03-03T08:56:53.078Z,9.80
2019-03-03T08:57:53.243Z,8.00
2019-03-03T08:58:53.439Z,8.10
2019-03-03T08:59:53.598Z,7.20
2019-03-03T09:00:53.841Z,7.10
2019-03-03T09:01:53.888Z,7.70
2019-03-03T09:02:54.285Z,7.10
2019-03-03T09:03:54.310Z,8.70
2019-03-03T09:04:54.467Z,11.00
2019-03-03T09:05:54.673Z,8.70
2019-03-03T09:06:54.838Z,6.90
2019-03-03T09:07:55.010Z,9.20
2019-03-03T09:08:55.178Z,9.60
2019-03-03T09:09:55.361Z,10.50
2019-03-03T09:10:55.563Z,7.60
2019-03-03T09:11:55.745Z,8.00
2019-03-03T09:12:55.946Z,8.10
2019-03-03T09:13:56.159Z,9.20
2019-03-03T09:14:56.403Z,9.80
2019-03-03T09:15:56.493Z,6.60
2019-03-03T09:16:56.674Z,8.90
2019-03-03T09:17:56.853Z,7.50
2019-03-03T09:18:57.197Z,8.50
2019-03-03T09:19:57.250Z,9.90
2019-03-03T09:20:57.493Z,8.00
2019-03-03T09:21:57.649Z,9.10
2019-03-03T09:22:57.988Z,9.00
2019-03-03T09:23:58.501Z,10.00
2019-03-03T09:24:58.170Z,9.20
2019-03-03T09:25:58.356Z,9.30
2019-03-03T09:26:58.526Z,8.70
2019-03-03T09:27:58.948Z,8.50
2019-03-03T09:28:58.922Z,10.60
2019-03-03T09:29:59.101Z,7.70
2019-03-03T09:30:59.274Z,9.60
2019-03-03T09:31:59.456Z,8.60
2019-03-03T09:32:59.633Z,6.90
2019-03-03T09:33:59.827Z,8.40
2019-03-03T09:34:59.999Z,8.30
2019-03-03T09:36:00.169Z,10.20
2019-03-03T09:37:00.342Z,9.70
2019-03-03T09:38:00.518Z,8.10
2019-03-03T09:39:00.700Z,9.90
2019-03-03T09:40:09.012Z,11.50
2019-03-03T09:41:01.074Z,9.80
2019-03-03T09:42:01.251Z,7.70
2019-03-03T09:43:01.421Z,10.00
2019-03-03T09:44:01.625Z,9.00
2019-03-03T09:45:01.835Z,12.00
2019-03-03T09:46:01.946Z,7.70
2019-03-03T09:47:02.250Z,11.50
2019-03-03T09:48:02.615Z,8.30
2019-03-03T09:49:02.820Z,9.40
2019-03-03T09:50:03.368Z,8.70
2019-03-03T09:51:02.816Z,9.40
2019-03-03T09:52:03.000Z,8.00
2019-03-03T09:53:04.349Z,7.60
2019-03-03T09:54:03.489Z,9.00
2019-03-03T09:55:04.677Z,9.30
2019-03-03T09:56:04.255Z,8.90
2019-03-03T09:57:04.192Z,7.50
2019-03-03T09:58:04.348Z,7.50
2019-03-03T09:59:04.101Z,9.60
2019-03-03T10:00:04.166Z,8.60
2019-03-03T10:01:04.372Z,9.40
2019-03-03T10:02:04.603Z,8.20
2019-03-03T10:03:05.149Z,7.90
2019-03-03T10:04:05.116Z,8.00
2019-03-03T10:05:05.143Z,9.20
2019-03-03T10:06:05.212Z,10.20
2019-03-03T10:07:06.559Z,11.10
2019-03-03T10:08:05.598Z,11.70
2019-03-03T10:09:05.708Z,10.00
2019-03-03T10:10:05.886Z,8.90
2019-03-03T10:11:05.959Z,10.70
2019-03-03T10:12:06.151Z,9.10
2019-03-03T10:13:08.712Z,8.40
2019-03-03T10:14:07.659Z,7.30
2019-03-03T10:15:07.266Z,6.20
2019-03-03T10:16:06.761Z,9.10
2019-03-03T10:17:06.912Z,8.90
2019-03-03T10:18:07.110Z,8.30
2019-03-03T10:19:07.510Z,8.30
2019-03-03T10:20:07.499Z,9.40
2019-03-03T10:21:07.898Z,9.30
2019-03-03T10:22:07.930Z,9.90
2019-03-03T10:23:07.972Z,7.90
2019-03-03T10:24:08.364Z,8.50
2019-03-03T10:25:08.400Z,9.10
2019-03-03T10:26:08.384Z,9.50
2019-03-03T10:27:08.570Z,10.10
2019-03-03T10:28:08.744Z,8.70
2019-03-03T10:29:09.256Z,7.70
2019-03-03T10:30:09.189Z,10.90
2019-03-03T10:31:09.339Z,7.40
2019-03-03T10:32:09.687Z,6.00
2019-03-03T10:33:09.716Z,9.70
2019-03-03T10:34:10.051Z,7.80
2019-03-03T10:35:09.952Z,8.70
2019-03-03T10:36:10.184Z,8.80
2019-03-03T10:37:10.427Z,11.00
2019-03-03T10:38:10.829Z,11.50
2019-03-03T10:39:10.556Z,7.30
2019-03-03T10:40:10.920Z,8.00
2019-03-03T10:41:10.864Z,7.60
2019-03-03T10:42:12.534Z,8.60
2019-03-03T10:43:11.176Z,8.90
2019-03-03T10:44:11.557Z,9.70
2019-03-03T10:45:11.545Z,8.20
2019-03-03T10:46:11.596Z,9.70
2019-03-03T10:47:11.779Z,7.20
2019-03-03T10:48:12.002Z,7.70
2019-03-03T10:49:12.103Z,8.20
2019-03-03T10:50:12.318Z,8.70
2019-03-03T10:51:12.502Z,8.30
2019-03-03T10:52:12.738Z,8.30
2019-03-03T10:53:12.913Z,6.50
2019-03-03T10:54:12.823Z,7.90
2019-03-03T10:55:12.899Z,9.20
2019-03-03T10:56:13.088Z,9.10
2019-03-03T10:57:13.302Z,8.20
2019-03-03T10:58:13.498Z,10.00
2019-03-03T10:59:13.718Z,9.20
2019-03-03T11:00:14.266Z,7.50
2019-03-03T11:01:14.974Z,7.10
2019-03-03T11:02:14.145Z,10.50
2019-03-03T11:03:14.550Z,8.90
2019-03-03T11:04:15.446Z,9.30
2019-03-03T11:05:14.695Z,11.10
2019-03-03T11:06:14.876Z,7.20
2019-03-03T11:07:15.051Z,10.60
2019-03-03T11:08:15.230Z,7.40
2019-03-03T11:09:15.404Z,8.80
2019-03-03T11:10:15.578Z,7.10
2019-03-03T11:11:15.756Z,7.80
2019-03-03T11:12:15.936Z,9.50
2019-03-03T11:13:16.128Z,9.00
2019-03-03T11:14:16.270Z,8.00
2019-03-03T11:15:18.726Z,8.30
2019-03-03T11:16:16.653Z,8.20
2019-03-03T11:17:16.812Z,10.60
2019-03-03T11:18:16.984Z,7.70
2019-03-03T11:19:17.155Z,8.50
2019-03-03T11:20:17.327Z,8.90
2019-03-03T11:21:17.488Z,9.30
2019-03-03T11:22:17.653Z,11.90
2019-03-03T11:23:17.815Z,7.10
2019-03-03T11:24:18.017Z,9.40
2019-03-03T11:25:18.203Z,9.50
2019-03-03T11:26:18.390Z,8.20
2019-03-03T11:27:18.615Z,8.20
2019-03-03T11:28:23.732Z,8.10
2019-03-03T11:29:18.910Z,8.60
2019-03-03T11:30:19.093Z,9.50
2019-03-03T11:31:19.257Z,8.10
2019-03-03T11:32:19.420Z,8.40
2019-03-03T11:33:19.612Z,9.00
2019-03-03T11:34:19.780Z,8.00
2019-03-03T11:35:19.950Z,7.50
2019-03-03T11:36:20.121Z,6.30
2019-03-03T11:37:20.293Z,7.00
2019-03-03T11:38:20.483Z,8.70
2019-03-03T11:39:20.622Z,6.80
2019-03-03T11:40:20.798Z,6.80
2019-03-03T11:41:20.963Z,8.30
2019-03-03T11:42:22.566Z,9.40
2019-03-03T11:43:21.318Z,9.10
2019-03-03T11:44:21.480Z,5.60
2019-03-03T11:45:21.654Z,7.50
2019-03-03T11:46:21.819Z,9.60
2019-03-03T11:47:21.991Z,8.60
2019-03-03T11:48:22.162Z,8.40
2019-03-03T11:49:22.331Z,9.50
2019-03-03T11:50:22.492Z,8.30
2019-03-03T11:51:22.676Z,9.60
2019-03-03T11:52:22.839Z,8.30
2019-03-03T11:53:23.028Z,10.10
2019-03-03T11:54:23.179Z,10.00
2019-03-03T11:55:23.352Z,9.00
2019-03-03T11:56:23.521Z,9.00
2019-03-03T11:57:23.688Z,8.90
2019-03-03T11:58:23.855Z,9.10
2019-03-03T11:59:24.035Z,8.00
2019-03-03T12:00:24.205Z,8.80
2019-03-03T12:01:24.367Z,8.00
2019-03-03T12:02:24.529Z,8.30
2019-03-03T12:03:24.702Z,7.80
2019-03-03T12:04:24.870Z,8.80
2019-03-03T12:05:25.070Z,7.30
2019-03-03T12:06:25.216Z,9.40
2019-03-03T12:07:25.379Z,8.00
2019-03-03T12:08:25.557Z,8.20
2019-03-03T12:09:25.713Z,9.90
2019-03-03T12:10:25.886Z,12.40
2019-03-03T12:11:26.073Z,8.60
2019-03-03T12:12:26.247Z,8.60
2019-03-03T12:13:26.411Z,10.60
2019-03-03T12:14:26.583Z,7.70
2019-03-03T12:15:26.767Z,8.20
2019-03-03T12:16:26.948Z,7.70
2019-03-03T12:17:27.111Z,9.00
2019-03-03T12:18:27.289Z,7.30
2019-03-03T12:19:27.540Z,7.90
2019-03-03T12:20:27.596Z,6.60
2019-03-03T12:21:27.768Z,7.50
2019-03-03T12:22:27.934Z,7.50
2019-03-03T12:23:28.106Z,9.60
2019-03-03T12:24:28.267Z,6.50
2019-03-03T12:25:28.457Z,7.30
2019-03-03T12:26:28.605Z,9.60
2019-03-03T12:27:28.766Z,6.40
2019-03-03T12:28:28.937Z,9.50
2019-03-03T12:29:29.111Z,7.00
2019-03-03T12:30:29.285Z,9.20
2019-03-03T12:31:29.496Z,7.00
2019-03-03T12:32:29.676Z,7.70
2019-03-03T12:33:29.833Z,6.90
2019-03-03T12:34:30.007Z,11.00
2019-03-03T12:35:30.183Z,9.80
2019-03-03T12:36:30.371Z,9.00
2019-03-03T12:37:30.540Z,5.90
2019-03-03T12:38:30.792Z,8.00
2019-03-03T12:39:31.079Z,6.10
2019-03-03T12:40:31.617Z,8.50
2019-03-03T12:41:31.292Z,7.00
2019-03-03T12:42:31.456Z,8.50
2019-03-03T12:43:31.626Z,8.70
2019-03-03T12:44:31.849Z,4.80
2019-03-03T12:45:32.009Z,7.00
2019-03-03T12:46:32.254Z,7.70
2019-03-03T12:47:32.303Z,5.80
2019-03-03T12:48:32.468Z,7.10
2019-03-03T12:49:32.636Z,8.80
2019-03-03T12:50:32.818Z,7.90
2019-03-03T12:51:32.975Z,9.80
2019-03-03T12:52:33.131Z,8.10
2019-03-03T12:53:33.319Z,8.50
2019-03-03T12:54:33.491Z,9.70
2019-03-03T12:55:33.645Z,7.30
2019-03-03T12:56:33.820Z,8.50
2019-03-03T12:57:33.987Z,6.50
2019-03-03T12:58:34.216Z,7.60
2019-03-03T12:59:34.324Z,6.80
2019-03-03T13:00:34.510Z,6.50
2019-03-03T13:01:34.684Z,7.80
2019-03-03T13:02:34.864Z,10.10
2019-03-03T13:03:35.061Z,8.60
2019-03-03T13:04:35.241Z,5.40
2019-03-03T13:05:35.409Z,7.20
2019-03-03T13:06:35.576Z,7.50
2019-03-03T13:07:35.770Z,8.70
2019-03-03T13:08:35.908Z,8.40
2019-03-03T13:09:36.081Z,7.70
2019-03-03T13:10:36.261Z,7.50
2019-03-03T13:11:36.472Z,7.20
2019-03-03T13:12:36.646Z,7.30
2019-03-03T13:13:36.821Z,5.40
2019-03-03T13:14:37.368Z,9.10
2019-03-03T13:15:37.187Z,8.20
2019-03-03T13:16:37.379Z,7.50
2019-03-03T13:17:37.666Z,5.80
2019-03-03T13:18:37.717Z,10.80
2019-03-03T13:19:37.915Z,7.10